createdAt,value
2023-01-29T00:00:20.409Z,24.10
2023-01-29T00:02:48.991Z,19.92
2023-01-29T00:05:27.372Z,25.40
2023-01-29T00:07:57.373Z,26.00
2023-01-29T00:10:27.057Z,20.83
2023-01-29T00:12:56.181Z,22.65
2023-01-29T00:15:26.445Z,23.35
2023-01-29T00:17:54.881Z,23.83
2023-01-29T00:20:23.439Z,23.23
2023-01-29T00:22:52.215Z,19.77
2023-01-29T00:25:21.026Z,20.38
2023-01-29T00:27:54.072Z,18.27
2023-01-29T00:30:28.597Z,18.30
2023-01-29T00:32:58.444Z,19.90
2023-01-29T00:35:27.267Z,22.85
2023-01-29T00:37:57.827Z,19.30
2023-01-29T00:40:29.649Z,20.77
2023-01-29T00:43:15.595Z,23.00
2023-01-29T00:45:45.589Z,23.50
2023-01-29T00:48:14.135Z,18.75
2023-01-29T00:50:42.820Z,22.50
2023-01-29T00:53:11.468Z,25.73
2023-01-29T00:55:40.093Z,24.15
2023-01-29T00:58:08.586Z,21.48
2023-01-29T01:00:36.911Z,21.92
2023-01-29T01:03:05.682Z,22.10
2023-01-29T01:05:35.197Z,19.33
2023-01-29T01:08:04.067Z,20.55
2023-01-29T01:10:33.846Z,26.10
2023-01-29T01:13:04.936Z,24.67
2023-01-29T01:15:36.620Z,25.85
2023-01-29T01:18:07.268Z,22.00
2023-01-29T01:20:37.766Z,24.17
2023-01-29T01:23:06.843Z,26.88
2023-01-29T01:25:35.832Z,19.73
2023-01-29T01:28:04.517Z,26.58
2023-01-29T01:30:33.211Z,24.73
2023-01-29T01:33:01.890Z,27.80
2023-01-29T01:35:32.037Z,27.05
2023-01-29T01:38:02.043Z,22.73
2023-01-29T01:40:30.531Z,25.90
2023-01-29T01:43:01.245Z,24.13
2023-01-29T01:45:32.666Z,23.48
2023-01-29T01:48:07.040Z,26.02
2023-01-29T01:50:42.735Z,27.50
2023-01-29T01:53:16.052Z,26.30
2023-01-29T01:55:49.893Z,23.67
2023-01-29T01:58:25.840Z,22.23
2023-01-29T02:00:55.441Z,26.52
2023-01-29T02:03:43.373Z,22.27
2023-01-29T02:06:31.513Z,25.30
2023-01-29T02:09:23.540Z,26.80
2023-01-29T02:11:53.028Z,21.48
2023-01-29T02:14:22.213Z,23.77
2023-01-29T02:16:51.073Z,25.27
2023-01-29T02:19:32.043Z,22.08
2023-01-29T02:22:29.315Z,27.00
2023-01-29T02:25:41.798Z,25.75
2023-01-29T02:28:31.732Z,22.15
2023-01-29T02:31:10.505Z,19.75
2023-01-29T02:33:51.475Z,22.23
2023-01-29T02:36:32.638Z,25.58
2023-01-29T02:39:10.287Z,24.52
2023-01-29T02:41:45.378Z,23.85
2023-01-29T02:44:23.597Z,22.25
2023-01-29T02:47:00.084Z,23.30
2023-01-29T02:49:36.865Z,25.45
2023-01-29T02:52:11.349Z,28.33
2023-01-29T02:54:48.052Z,24.45
2023-01-29T02:57:22.855Z,32.25
2023-01-29T02:59:58.622Z,28.67
2023-01-29T03:02:34.669Z,30.25
2023-01-29T03:05:10.410Z,33.70
2023-01-29T03:07:46.501Z,30.23
2023-01-29T03:10:22.028Z,30.10
2023-01-29T03:12:56.867Z,31.77
2023-01-29T03:15:38.990Z,28.70
2023-01-29T03:18:12.793Z,29.98
2023-01-29T03:20:49.744Z,30.38
2023-01-29T03:23:44.983Z,33.13
2023-01-29T03:26:32.482Z,31.07
2023-01-29T03:29:21.991Z,33.65
2023-01-29T03:32:07.588Z,29.05
2023-01-29T03:37:16.472Z,33.17
2023-01-29T03:39:44.995Z,32.50
2023-01-29T03:42:22.147Z,33.53
2023-01-29T03:45:00.872Z,32.38
2023-01-29T03:47:43.425Z,34.28
2023-01-29T03:50:25.961Z,33.03
2023-01-29T03:53:03.788Z,37.13
2023-01-29T03:55:43.676Z,32.70
2023-01-29T03:58:25.169Z,35.50
2023-01-29T04:00:59.878Z,35.38
2023-01-29T04:03:36.239Z,36.95
2023-01-29T04:06:12.417Z,36.42
2023-01-29T04:08:51.922Z,36.13
2023-01-29T04:11:23.689Z,35.10
2023-01-29T04:13:54.011Z,38.28
2023-01-29T04:16:28.625Z,40.00
2023-01-29T04:18:58.769Z,37.05
2023-01-29T04:21:28.167Z,36.10
2023-01-29T04:23:56.924Z,36.17
2023-01-29T04:26:48.064Z,38.83
2023-01-29T04:29:30.313Z,38.97
2023-01-29T04:32:09.904Z,36.42
2023-01-29T04:34:53.058Z,38.22
2023-01-29T04:37:36.576Z,36.97
2023-01-29T04:40:19.691Z,39.55
2023-01-29T04:43:02.310Z,38.15
2023-01-29T04:45:47.173Z,35.58
2023-01-29T04:48:23.829Z,41.60
2023-01-29T04:51:05.452Z,42.92
2023-01-29T04:53:46.514Z,46.13
2023-01-29T04:56:22.853Z,39.10
2023-01-29T04:58:59.624Z,47.40
2023-01-29T05:01:33.238Z,38.45
2023-01-29T05:04:07.779Z,44.83
2023-01-29T05:06:39.255Z,42.22
2023-01-29T05:09:09.423Z,42.75
2023-01-29T05:11:38.854Z,41.55
2023-01-29T05:14:13.030Z,42.20
2023-01-29T05:16:46.441Z,40.97
2023-01-29T05:19:17.077Z,38.88
2023-01-29T05:21:50.196Z,41.85
2023-01-29T05:24:21.612Z,38.97
2023-01-29T05:27:10.060Z,46.55
2023-01-29T05:29:39.300Z,44.70
2023-01-29T05:32:07.962Z,41.70
2023-01-29T05:34:36.709Z,46.63
2023-01-29T05:37:06.903Z,41.80
2023-01-29T05:39:35.786Z,45.28
2023-01-29T05:42:04.961Z,45.50
2023-01-29T05:44:33.906Z,41.72
2023-01-29T05:47:03.937Z,39.72
2023-01-29T05:49:32.727Z,44.55
2023-01-29T05:52:01.068Z,40.20
2023-01-29T05:54:31.988Z,41.67
2023-01-29T05:57:03.386Z,43.85
2023-01-29T05:59:36.001Z,43.67
2023-01-29T06:02:04.933Z,44.05
2023-01-29T06:04:33.619Z,42.17
2023-01-29T06:07:03.503Z,48.22
2023-01-29T06:09:33.510Z,44.22
2023-01-29T06:12:02.512Z,46.97
2023-01-29T06:14:31.493Z,44.97
2023-01-29T06:17:03.152Z,52.45
2023-01-29T06:19:32.041Z,44.78
2023-01-29T06:22:00.771Z,45.50
2023-01-29T06:24:30.022Z,46.80
2023-01-29T06:27:01.061Z,44.97
2023-01-29T06:29:32.778Z,48.13
2023-01-29T06:32:01.502Z,47.97
2023-01-29T06:34:30.194Z,42.67
2023-01-29T06:37:01.860Z,45.35
2023-01-29T06:39:30.393Z,44.55
2023-01-29T06:42:00.602Z,43.28
2023-01-29T06:44:29.524Z,46.88
2023-01-29T07:09:30.216Z,50.25
2023-01-29T07:11:59.145Z,45.03
2023-01-29T07:14:33.147Z,50.22
2023-01-29T07:17:01.640Z,47.97
2023-01-29T07:19:31.553Z,51.13
2023-01-29T07:22:02.542Z,49.40
2023-01-29T07:24:32.755Z,46.15
2023-01-29T07:27:01.569Z,50.45
2023-01-29T07:29:38.490Z,46.45
2023-01-29T07:33:30.063Z,49.90
2023-01-29T07:35:59.811Z,52.47
2023-01-29T07:38:28.607Z,47.83
2023-01-29T07:40:58.651Z,48.78
2023-01-29T07:43:27.427Z,49.13
2023-01-29T07:45:58.320Z,54.40
2023-01-29T07:48:27.368Z,49.75
2023-01-29T07:50:58.569Z,50.83
2023-01-29T07:53:28.012Z,48.28
2023-01-29T07:55:58.069Z,49.35
2023-01-29T07:58:26.586Z,49.63
2023-01-29T08:00:55.216Z,48.63
2023-01-29T08:03:23.834Z,53.90
2023-01-29T08:05:52.565Z,53.95
2023-01-29T08:08:21.670Z,47.25
2023-01-29T08:10:50.134Z,47.83
2023-01-29T08:13:20.160Z,49.35
2023-01-29T08:15:48.832Z,49.25
2023-01-29T08:18:19.955Z,46.88
2023-01-29T08:20:50.985Z,52.83
2023-01-29T08:23:23.592Z,45.55
2023-01-29T08:25:55.090Z,51.22
2023-01-29T08:28:25.528Z,48.45
2023-01-29T08:30:54.170Z,49.00
2023-01-29T08:33:29.801Z,44.30
2023-01-29T08:36:04.419Z,47.72
2023-01-29T08:38:35.263Z,41.55
2023-01-29T08:41:06.127Z,42.92
2023-01-29T08:43:37.116Z,47.00
2023-01-29T08:46:07.150Z,42.38
2023-01-29T08:48:36.418Z,45.58
2023-01-29T08:51:06.497Z,40.85
2023-01-29T08:53:35.098Z,42.85
2023-01-29T08:56:04.148Z,48.78
2023-01-29T08:58:51.880Z,43.70
2023-01-29T09:01:21.281Z,43.78
2023-01-29T09:03:53.027Z,45.80
2023-01-29T09:06:22.236Z,44.85
2023-01-29T09:08:51.921Z,43.28
2023-01-29T09:11:20.541Z,48.60
2023-01-29T09:13:52.906Z,40.78
2023-01-29T09:16:22.564Z,46.53
2023-01-29T09:18:52.268Z,38.40
2023-01-29T09:21:27.415Z,42.90
2023-01-29T09:23:56.274Z,39.58
2023-01-29T09:26:26.005Z,44.80
2023-01-29T09:28:56.723Z,48.42
2023-01-29T09:31:28.373Z,46.50
2023-01-29T09:33:57.437Z,45.85
2023-01-29T09:36:29.134Z,43.72
2023-01-29T09:38:58.948Z,44.00
2023-01-29T09:41:45.059Z,39.40
2023-01-29T09:44:25.801Z,40.13
2023-01-29T09:46:57.757Z,38.30
2023-01-29T09:49:31.976Z,39.67
2023-01-29T09:52:08.389Z,39.70
2023-01-29T09:54:52.972Z,43.72
2023-01-29T09:57:30.722Z,39.00
2023-01-29T10:00:04.800Z,45.38
2023-01-29T10:02:56.325Z,42.40
2023-01-29T10:05:54.561Z,41.97
2023-01-29T10:09:21.390Z,41.38
2023-01-29T10:12:03.070Z,48.22
2023-01-29T10:14:46.923Z,38.40
2023-01-29T10:17:39.546Z,44.17
2023-01-29T10:20:43.037Z,44.60
2023-01-29T10:23:28.294Z,37.65
2023-01-29T10:26:02.112Z,41.55
2023-01-29T10:28:35.909Z,41.42
2023-01-29T10:31:11.539Z,38.92
2023-01-29T10:34:02.627Z,38.38
2023-01-29T10:36:41.461Z,43.85
2023-01-29T10:39:19.017Z,45.92
2023-01-29T10:42:03.557Z,45.80
2023-01-29T10:44:47.934Z,40.30
2023-01-29T10:47:50.562Z,43.17
2023-01-29T10:50:35.969Z,46.40
2023-01-29T10:53:23.666Z,42.00
2023-01-29T10:56:05.803Z,42.17
2023-01-29T10:58:50.560Z,45.10
2023-01-29T11:01:19.307Z,38.67
2023-01-29T11:03:57.388Z,44.35
2023-01-29T11:06:40.580Z,45.67
2023-01-29T11:09:25.775Z,39.33
2023-01-29T11:11:59.469Z,45.55
2023-01-29T11:14:44.173Z,42.35
2023-01-29T11:17:18.217Z,41.85
2023-01-29T11:19:52.975Z,45.53
2023-01-29T11:22:27.999Z,46.03
2023-01-29T11:25:20.225Z,46.55
2023-01-29T11:27:57.787Z,44.13
2023-01-29T11:30:32.627Z,47.42
2023-01-29T11:33:11.031Z,46.58
2023-01-29T11:35:39.937Z,44.22
2023-01-29T11:38:20.740Z,47.00
2023-01-29T11:40:49.708Z,48.22
2023-01-29T11:43:33.278Z,44.75
2023-01-29T11:46:05.377Z,46.95
2023-01-29T11:48:43.061Z,52.30
2023-01-29T11:51:22.819Z,51.28
2023-01-29T11:53:59.879Z,48.63
2023-01-29T11:56:35.857Z,50.63
2023-01-29T11:59:07.536Z,51.22
2023-01-29T12:01:45.893Z,46.10
2023-01-29T12:04:22.931Z,50.83
2023-01-29T12:06:55.864Z,53.28
2023-01-29T12:09:28.650Z,47.00
2023-01-29T12:12:17.589Z,48.42
2023-01-29T12:14:46.417Z,51.42
2023-01-29T12:17:21.738Z,53.95
2023-01-29T12:19:56.506Z,59.10
2023-01-29T12:22:40.264Z,50.45
2023-01-29T12:25:25.831Z,55.40
2023-01-29T12:28:05.114Z,48.55
2023-01-29T12:30:46.268Z,53.30
2023-01-29T12:33:29.129Z,51.97
2023-01-29T12:36:11.364Z,54.22
2023-01-29T12:39:00.737Z,55.40
2023-01-29T12:41:41.232Z,57.15
2023-01-29T12:44:25.382Z,56.85
2023-01-29T12:46:58.662Z,55.28
2023-01-29T12:49:35.305Z,58.58
2023-01-29T12:52:15.268Z,51.83
2023-01-29T12:54:55.854Z,54.03
2023-01-29T12:57:42.203Z,62.15
2023-01-29T13:00:20.088Z,59.13
2023-01-29T13:02:57.009Z,61.38
2023-01-29T13:05:30.364Z,56.90
2023-01-29T13:08:14.066Z,52.63
2023-01-29T13:10:50.442Z,62.22
2023-01-29T13:13:31.796Z,61.50
2023-01-29T13:16:07.478Z,59.40
2023-01-29T13:18:45.454Z,57.00
2023-01-29T13:21:21.297Z,54.13
2023-01-29T13:23:58.666Z,54.08
2023-01-29T13:26:28.309Z,49.17
2023-01-29T13:29:01.766Z,55.83
2023-01-29T13:31:33.091Z,56.30
2023-01-29T13:34:16.592Z,54.13
2023-01-29T13:36:48.730Z,52.22
2023-01-29T13:39:27.954Z,58.97
2023-01-29T13:42:05.168Z,72.55
2023-01-29T13:44:40.928Z,73.90
2023-01-29T13:47:22.047Z,56.40
2023-01-29T13:49:58.411Z,69.30
2023-01-29T13:52:40.246Z,60.38
2023-01-29T13:55:25.435Z,60.50
2023-01-29T13:57:57.625Z,66.63
2023-01-29T14:01:03.060Z,61.67
2023-01-29T14:04:05.591Z,62.23
2023-01-29T14:07:00.552Z,65.25
2023-01-29T14:10:12.068Z,64.75
2023-01-29T14:12:45.579Z,59.80
2023-01-29T14:15:32.301Z,58.85
2023-01-29T14:18:24.163Z,62.70
2023-01-29T14:21:01.954Z,61.03
2023-01-29T14:23:47.146Z,65.43
2023-01-29T14:26:34.576Z,58.67
2023-01-29T14:29:32.553Z,60.67
2023-01-29T14:32:15.771Z,59.42
2023-01-29T14:34:49.920Z,55.80
2023-01-29T14:37:28.091Z,57.95
2023-01-29T14:40:00.362Z,57.30
2023-01-29T14:42:40.193Z,55.83
2023-01-29T14:45:24.086Z,51.83
2023-01-29T14:48:38.846Z,51.28
2023-01-29T14:51:15.523Z,50.88
2023-01-29T14:54:18.529Z,50.97
2023-01-29T14:56:59.651Z,55.03
2023-01-29T14:59:39.041Z,53.78
2023-01-29T15:02:20.900Z,49.53
2023-01-29T15:04:55.092Z,54.13
2023-01-29T15:07:38.534Z,48.63
2023-01-29T15:10:22.728Z,55.10
2023-01-29T15:12:58.759Z,44.38
2023-01-29T15:15:39.053Z,47.58
2023-01-29T15:18:15.579Z,50.20
2023-01-29T15:20:45.653Z,45.72
2023-01-29T15:23:31.057Z,43.72
2023-01-29T15:26:12.650Z,42.80
2023-01-29T15:28:43.511Z,48.75
2023-01-29T15:31:19.564Z,46.17
2023-01-29T15:33:53.617Z,51.70
2023-01-29T15:36:29.903Z,47.20
2023-01-29T15:39:22.786Z,48.58
2023-01-29T15:41:54.487Z,48.08
2023-01-29T15:44:27.531Z,56.92
2023-01-29T15:47:17.577Z,57.13
2023-01-29T15:49:51.712Z,53.33
2023-01-29T15:55:50.432Z,45.50
2023-01-29T15:58:30.564Z,47.30
2023-01-29T16:04:06.052Z,53.78
2023-01-29T16:06:56.111Z,49.38
2023-01-29T16:12:52.697Z,50.78
2023-01-29T16:15:36.738Z,54.17
2023-01-29T16:21:16.054Z,58.70
2023-01-29T16:23:52.038Z,50.53
2023-01-29T16:26:31.976Z,53.30
2023-01-29T16:29:16.759Z,55.85
2023-01-29T16:31:49.555Z,58.83
2023-01-29T16:37:34.832Z,55.63
2023-01-29T16:40:20.304Z,53.63
2023-01-29T16:42:49.871Z,58.47
2023-01-29T16:45:33.756Z,69.47
2023-01-29T16:48:26.642Z,58.63
2023-01-29T16:51:11.487Z,60.08
2023-01-29T16:53:40.918Z,54.00
2023-01-29T16:56:21.657Z,56.35
2023-01-29T16:59:00.808Z,59.33
2023-01-29T17:01:35.413Z,61.35
2023-01-29T17:04:11.971Z,59.90
2023-01-29T17:06:47.394Z,60.75
2023-01-29T17:12:02.932Z,60.28
2023-01-29T17:14:35.717Z,63.40
2023-01-29T17:17:30.372Z,67.82
2023-01-29T17:20:08.617Z,64.97
2023-01-29T17:22:58.857Z,59.60
2023-01-29T17:25:29.720Z,58.67
2023-01-29T17:28:01.367Z,59.47
2023-01-29T17:30:35.272Z,58.22
2023-01-29T17:33:15.868Z,62.47
2023-01-29T17:35:46.979Z,58.85
2023-01-29T17:38:25.910Z,62.97
2023-01-29T17:40:59.969Z,58.38
2023-01-29T17:43:43.196Z,62.55
2023-01-29T17:46:16.172Z,60.75
2023-01-29T17:48:49.229Z,63.45
2023-01-29T17:51:25.117Z,61.88
2023-01-29T17:54:13.142Z,62.40
2023-01-29T17:56:42.603Z,55.75
2023-01-29T17:59:17.952Z,56.75
2023-01-29T18:01:47.173Z,62.83
2023-01-29T18:04:20.057Z,57.28
2023-01-29T18:06:51.817Z,58.70
2023-01-29T18:09:22.590Z,57.63
2023-01-29T18:11:53.677Z,53.50
2023-01-29T18:14:22.688Z,54.17
2023-01-29T18:16:53.505Z,58.67
2023-01-29T18:19:35.314Z,62.80
2023-01-29T18:22:16.065Z,56.85
2023-01-29T18:24:47.136Z,61.55
2023-01-29T18:27:16.365Z,59.22
2023-01-29T18:29:45.058Z,63.67
2023-01-29T18:32:14.200Z,63.63
2023-01-29T18:34:44.674Z,65.13
2023-01-29T18:37:13.866Z,57.95
2023-01-29T18:39:42.714Z,60.72
2023-01-29T18:42:11.481Z,63.65
2023-01-29T18:44:42.228Z,60.47
2023-01-29T18:47:11.431Z,59.20
2023-01-29T18:49:42.635Z,64.93
2023-01-29T18:52:14.239Z,60.10
2023-01-29T18:54:47.520Z,66.75
2023-01-29T18:58:28.974Z,56.38
2023-01-29T19:00:15.870Z,64.68
2023-01-29T19:02:54.046Z,60.40
2023-01-29T19:05:24.925Z,61.90
2023-01-29T19:07:56.345Z,58.92
2023-01-29T19:10:25.439Z,63.05
2023-01-29T19:13:06.603Z,72.60
2023-01-29T19:15:39.219Z,62.85
2023-01-29T19:18:14.698Z,64.40
2023-01-29T19:20:44.127Z,60.67
2023-01-29T19:23:19.500Z,66.95
2023-01-29T19:25:48.732Z,61.60
2023-01-29T19:28:24.022Z,64.45
2023-01-29T19:33:24.259Z,56.40
2023-01-29T19:35:56.718Z,71.47
2023-01-29T19:38:34.209Z,64.05
2023-01-29T19:41:08.553Z,57.30
2023-01-29T19:43:40.643Z,53.55
2023-01-29T19:46:11.093Z,60.13
2023-01-29T19:48:40.598Z,66.68
2023-01-29T19:51:12.547Z,56.35
2023-01-29T19:53:46.164Z,56.97
2023-01-29T19:56:21.437Z,55.15
2023-01-29T19:58:57.508Z,59.30
2023-01-29T20:01:32.921Z,49.65
2023-01-29T20:04:09.251Z,62.38
2023-01-29T20:06:39.059Z,57.50
2023-01-29T20:09:10.285Z,59.38
2023-01-29T20:11:47.809Z,62.33
2023-01-29T20:14:17.674Z,59.92
2023-01-29T20:16:48.020Z,55.92
2023-01-29T20:19:20.678Z,55.50
2023-01-29T20:21:53.093Z,58.13
2023-01-29T20:24:28.449Z,55.65
2023-01-29T20:27:09.156Z,58.75
2023-01-29T20:29:54.875Z,54.20
2023-01-29T20:34:55.565Z,57.00
2023-01-29T20:37:32.715Z,60.83
2023-01-29T20:40:04.457Z,55.30
2023-01-29T20:45:22.294Z,56.50
2023-01-29T20:47:52.047Z,54.15
2023-01-29T20:50:21.225Z,56.92
2023-01-29T20:52:57.608Z,57.63
2023-01-29T20:55:28.580Z,62.17
2023-01-29T20:58:06.368Z,56.00
2023-01-29T21:00:36.311Z,64.15
2023-01-29T21:03:08.859Z,59.80
2023-01-29T21:05:37.820Z,55.35
2023-01-29T21:08:07.188Z,53.47
2023-01-29T21:10:45.242Z,59.10
2023-01-29T21:13:14.309Z,54.25
2023-01-29T21:15:45.069Z,56.92
2023-01-29T21:18:14.349Z,58.38
2023-01-29T21:20:43.484Z,54.25
2023-01-29T21:23:12.683Z,55.63
2023-01-29T21:25:46.288Z,60.65
2023-01-29T21:28:19.269Z,59.65
2023-01-29T21:30:49.549Z,57.13
2023-01-29T21:33:18.212Z,56.88
2023-01-29T21:35:46.941Z,59.80
2023-01-29T21:38:15.840Z,57.45
2023-01-29T21:40:46.701Z,59.05
2023-01-29T21:43:15.740Z,56.95
2023-01-29T21:45:46.233Z,65.63
2023-01-29T21:48:15.414Z,55.05
2023-01-29T21:50:44.268Z,53.88
2023-01-29T21:53:13.459Z,57.03
2023-01-29T21:55:42.249Z,61.13
2023-01-29T21:58:14.663Z,59.55
2023-01-29T22:00:43.727Z,51.75
2023-01-29T22:03:12.282Z,55.97
2023-01-29T22:05:41.444Z,55.17
2023-01-29T22:08:10.263Z,52.30
2023-01-29T22:10:40.227Z,54.38
2023-01-29T22:13:09.526Z,57.33
2023-01-29T22:15:39.526Z,53.45
2023-01-29T22:18:08.050Z,58.55
2023-01-29T22:20:36.730Z,68.68
2023-01-29T22:23:05.559Z,64.80
2023-01-29T22:25:34.310Z,59.60
2023-01-29T22:28:03.362Z,61.72
2023-01-29T22:30:33.664Z,67.70
2023-01-29T22:33:04.529Z,56.17
2023-01-29T22:35:33.754Z,58.60
2023-01-29T22:38:02.290Z,63.80
2023-01-29T22:40:30.898Z,59.55
2023-01-29T22:43:00.206Z,68.22
2023-01-29T22:45:28.817Z,62.28
2023-01-29T22:47:58.058Z,65.70
2023-01-29T22:50:30.103Z,60.53
2023-01-29T22:52:59.178Z,68.03
2023-01-29T22:55:27.994Z,60.30
2023-01-29T22:57:56.763Z,60.63
2023-01-29T23:00:25.780Z,58.28
2023-01-29T23:02:54.324Z,65.45
2023-01-29T23:05:22.920Z,70.32
2023-01-29T23:07:53.165Z,59.25
2023-01-29T23:10:22.612Z,61.15
2023-01-29T23:12:51.520Z,66.65
2023-01-29T23:15:20.395Z,54.60
2023-01-29T23:17:49.198Z,54.28
2023-01-29T23:20:20.602Z,66.50
2023-01-29T23:22:49.297Z,60.78
2023-01-29T23:25:20.241Z,66.47
2023-01-29T23:27:48.436Z,58.40
2023-01-29T23:30:17.644Z,60.55
2023-01-29T23:32:46.566Z,60.33
2023-01-29T23:35:15.388Z,54.03
2023-01-29T23:37:43.965Z,57.08
2023-01-29T23:40:13.787Z,49.92
2023-01-29T23:42:44.776Z,56.85
2023-01-29T23:45:13.381Z,57.75
2023-01-29T23:47:43.686Z,52.35
2023-01-29T23:50:14.768Z,53.65
2023-01-29T23:52:43.502Z,53.63
2023-01-29T23:55:12.455Z,50.63
2023-01-29T23:57:42.921Z,46.30
